Terminal Aerodrome Forecast
Issued by NWS Tuscon, AZ

Home | Current Version | Previous Version | Text Only | Print | Product List | Glossary On
Versions: 1 2 3 4 5 6 7 8 9 10 11 12 13 14 15
000
FTUS45 KTWC 301120
TAFTUS
TAF
KTUS 301120Z 3012/3112 14006KT P6SM FEW150 SCT200
     FM301900 18007KT P6SM FEW100 FEW200
     FM302200 25010KT P6SM VCSH SCT090 SCT200
     FM310200 21008KT P6SM SCT090 BKN200
     FM310500 15006KT P6SM SCT120 SCT200=

USA.gov is the U.S. government's official web portal to all federal, state and local government web resources and services.